sensor_id;sensor_type;location;lat;lon;timestamp;pressure;altitude;pressure_sealevel;temperature;humidity
26859;BME280;14429;48.346;16.338;2024-01-06T00:01:44;98602.41;;;12.38;51.84
26859;BME280;14429;48.346;16.338;2024-01-06T00:04:09;98597.63;;;12.41;51.39
26859;BME280;14429;48.346;16.338;2024-01-06T00:06:34;98594.34;;;12.47;50.88
26859;BME280;14429;48.346;16.338;2024-01-06T00:09:00;98586.88;;;12.51;50.60
26859;BME280;14429;48.346;16.338;2024-01-06T00:11:27;98596.63;;;12.52;50.49
26859;BME280;14429;48.346;16.338;2024-01-06T00:13:52;98595.91;;;12.50;50.44
26859;BME280;14429;48.346;16.338;2024-01-06T00:16:18;98593.50;;;12.47;51.02
26859;BME280;14429;48.346;16.338;2024-01-06T00:18:43;98589.00;;;12.47;51.07
26859;BME280;14429;48.346;16.338;2024-01-06T00:21:09;98589.31;;;12.44;51.10
26859;BME280;14429;48.346;16.338;2024-01-06T00:23:34;98598.06;;;12.37;51.73
26859;BME280;14429;48.346;16.338;2024-01-06T00:25:59;98597.50;;;12.34;52.07
26859;BME280;14429;48.346;16.338;2024-01-06T00:28:26;98595.66;;;12.34;52.27
26859;BME280;14429;48.346;16.338;2024-01-06T00:30:51;98597.63;;;12.32;52.20
26859;BME280;14429;48.346;16.338;2024-01-06T00:33:17;98598.06;;;12.37;51.82
26859;BME280;14429;48.346;16.338;2024-01-06T00:35:42;98597.06;;;12.38;51.47
26859;BME280;14429;48.346;16.338;2024-01-06T00:38:08;98599.91;;;11.23;49.56
26859;BME280;14429;48.346;16.338;2024-01-06T00:40:33;98603.69;;;11.78;52.16
26859;BME280;14429;48.346;16.338;2024-01-06T00:42:59;98601.16;;;12.05;51.82
26859;BME280;14429;48.346;16.338;2024-01-06T00:45:25;98602.56;;;12.27;51.09
26859;BME280;14429;48.346;16.338;2024-01-06T00:47:51;98602.84;;;12.34;50.89
26859;BME280;14429;48.346;16.338;2024-01-06T00:50:17;98607.03;;;12.36;51.38
26859;BME280;14429;48.346;16.338;2024-01-06T00:52:43;98603.41;;;12.37;51.14
26859;BME280;14429;48.346;16.338;2024-01-06T00:55:08;98608.31;;;12.32;51.52
26859;BME280;14429;48.346;16.338;2024-01-06T00:57:34;98613.81;;;12.31;51.99
26859;BME280;14429;48.346;16.338;2024-01-06T00:59:59;98622.94;;;12.28;52.40
26859;BME280;14429;48.346;16.338;2024-01-06T01:02:26;98621.41;;;12.26;52.40
26859;BME280;14429;48.346;16.338;2024-01-06T01:04:51;98624.66;;;12.29;52.30
26859;BME280;14429;48.346;16.338;2024-01-06T01:07:17;98628.00;;;12.31;52.03
26859;BME280;14429;48.346;16.338;2024-01-06T01:09:42;98625.06;;;12.34;51.47
26859;BME280;14429;48.346;16.338;2024-01-06T01:12:07;98614.09;;;12.37;51.18
26859;BME280;14429;48.346;16.338;2024-01-06T01:14:33;98623.63;;;12.39;50.90
26859;BME280;14429;48.346;16.338;2024-01-06T01:16:58;98618.84;;;12.43;50.58
26859;BME280;14429;48.346;16.338;2024-01-06T01:19:25;98620.25;;;12.47;50.37
26859;BME280;14429;48.346;16.338;2024-01-06T01:21:50;98619.84;;;12.42;50.53
26859;BME280;14429;48.346;16.338;2024-01-06T01:24:16;98612.69;;;12.33;51.29
26859;BME280;14429;48.346;16.338;2024-01-06T01:26:41;98607.63;;;12.30;51.68
26859;BME280;14429;48.346;16.338;2024-01-06T01:29:06;98617.47;;;12.30;52.01
26859;BME280;14429;48.346;16.338;2024-01-06T01:31:32;98619.31;;;12.29;52.06
26859;BME280;14429;48.346;16.338;2024-01-06T01:33:57;98623.66;;;12.30;51.73
26859;BME280;14429;48.346;16.338;2024-01-06T01:36:24;98625.06;;;12.34;51.40
26859;BME280;14429;48.346;16.338;2024-01-06T01:38:49;98630.13;;;12.37;51.00
26859;BME280;14429;48.346;16.338;2024-01-06T01:41:15;98619.16;;;12.40;50.68
26859;BME280;14429;48.346;16.338;2024-01-06T01:43:40;98619.16;;;12.40;50.61
26859;BME280;14429;48.346;16.338;2024-01-06T01:46:06;98629.41;;;12.44;50.26
26859;BME280;14429;48.346;16.338;2024-01-06T01:48:31;98621.50;;;12.43;50.33
26859;BME280;14429;48.346;16.338;2024-01-06T01:50:57;98628.44;;;12.27;50.87
26859;BME280;14429;48.346;16.338;2024-01-06T01:53:24;98609.03;;;12.34;51.20
26859;BME280;14429;48.346;16.338;2024-01-06T01:55:49;98613.97;;;12.29;51.54
26859;BME280;14429;48.346;16.338;2024-01-06T01:58:16;98609.44;;;12.20;51.88
26859;BME280;14429;48.346;16.338;2024-01-06T02:00:41;98602.69;;;11.12;49.90
26859;BME280;14429;48.346;16.338;2024-01-06T02:03:07;98599.91;;;11.99;52.88
26859;BME280;14429;48.346;16.338;2024-01-06T02:05:34;98591.88;;;12.09;52.69
26859;BME280;14429;48.346;16.338;2024-01-06T02:07:59;98585.84;;;12.16;52.18
26859;BME280;14429;48.346;16.338;2024-01-06T02:10:26;98586.78;;;12.24;51.61
26859;BME280;14429;48.346;16.338;2024-01-06T02:12:52;98592.41;;;12.31;51.33
26859;BME280;14429;48.346;16.338;2024-01-06T02:15:17;98583.28;;;12.33;51.00
26859;BME280;14429;48.346;16.338;2024-01-06T02:17:43;98577.53;;;12.10;50.80
26859;BME280;14429;48.346;16.338;2024-01-06T02:20:09;98569.09;;;12.33;50.58
26859;BME280;14429;48.346;16.338;2024-01-06T02:22:37;98564.59;;;12.14;50.86
26859;BME280;14429;48.346;16.338;2024-01-06T02:25:05;98569.09;;;12.23;51.56
26859;BME280;14429;48.346;16.338;2024-01-06T02:27:32;98563.06;;;12.21;51.92
26859;BME280;14429;48.346;16.338;2024-01-06T02:29:57;98559.81;;;12.18;52.30
26859;BME280;14429;48.346;16.338;2024-01-06T02:32:23;98558.69;;;12.20;52.09
26859;BME280;14429;48.346;16.338;2024-01-06T02:34:48;98543.34;;;12.22;51.88
26859;BME280;14429;48.346;16.338;2024-01-06T02:37:14;98541.13;;;12.18;51.44
26859;BME280;14429;48.346;16.338;2024-01-06T02:39:40;98540.09;;;12.28;51.09
26859;BME280;14429;48.346;16.338;2024-01-06T02:42:06;98544.47;;;12.29;50.85
26859;BME280;14429;48.346;16.338;2024-01-06T02:44:31;98553.88;;;12.33;50.51
26859;BME280;14429;48.346;16.338;2024-01-06T02:46:57;98551.63;;;12.38;50.24
26859;BME280;14429;48.346;16.338;2024-01-06T02:49:22;98556.56;;;12.33;50.56
26859;BME280;14429;48.346;16.338;2024-01-06T02:51:47;98554.44;;;12.27;51.39
26859;BME280;14429;48.346;16.338;2024-01-06T02:54:13;98551.09;;;12.25;51.15
26859;BME280;14429;48.346;16.338;2024-01-06T02:56:40;98549.97;;;12.18;51.64
26859;BME280;14429;48.346;16.338;2024-01-06T02:59:05;98552.38;;;12.21;52.03
26859;BME280;14429;48.346;16.338;2024-01-06T03:01:31;98557.28;;;12.16;52.29
26859;BME280;14429;48.346;16.338;2024-01-06T03:03:57;98547.59;;;12.15;52.52
26859;BME280;14429;48.346;16.338;2024-01-06T03:06:22;98553.63;;;12.17;52.24
26859;BME280;14429;48.346;16.338;2024-01-06T03:08:48;98551.66;;;12.19;51.83
26859;BME280;14429;48.346;16.338;2024-01-06T03:11:13;98553.34;;;12.20;51.44
26859;BME280;14429;48.346;16.338;2024-01-06T03:13:41;98554.72;;;12.24;51.22
26859;BME280;14429;48.346;16.338;2024-01-06T03:16:06;98551.78;;;12.27;50.81
26859;BME280;14429;48.346;16.338;2024-01-06T03:18:32;98552.78;;;12.17;50.64
26859;BME280;14429;48.346;16.338;2024-01-06T03:20:57;98538.19;;;11.84;51.34
26859;BME280;14429;48.346;16.338;2024-01-06T03:23:23;98541.53;;;12.13;50.99
26859;BME280;14429;48.346;16.338;2024-01-06T03:25:48;98543.25;;;12.14;51.74
26859;BME280;14429;48.346;16.338;2024-01-06T03:28:13;98551.94;;;12.16;51.62
26859;BME280;14429;48.346;16.338;2024-01-06T03:30:40;98552.53;;;12.11;52.20
26859;BME280;14429;48.346;16.338;2024-01-06T03:33:06;98547.19;;;12.11;52.34
26859;BME280;14429;48.346;16.338;2024-01-06T03:35:31;98542.25;;;11.97;52.85
26859;BME280;14429;48.346;16.338;2024-01-06T03:37:57;98538.16;;;12.02;52.89
26859;BME280;14429;48.346;16.338;2024-01-06T03:40:22;98543.78;;;12.09;52.32
26859;BME280;14429;48.346;16.338;2024-01-06T03:42:47;98532.81;;;12.12;51.85
26859;BME280;14429;48.346;16.338;2024-01-06T03:45:13;98537.56;;;12.17;51.48
26859;BME280;14429;48.346;16.338;2024-01-06T03:47:40;98537.06;;;12.14;51.31
26859;BME280;14429;48.346;16.338;2024-01-06T03:50:06;98533.66;;;12.21;50.81
26859;BME280;14429;48.346;16.338;2024-01-06T03:52:31;98532.66;;;12.13;50.93
26859;BME280;14429;48.346;16.338;2024-01-06T03:54:56;98539.97;;;12.20;50.78
26859;BME280;14429;48.346;16.338;2024-01-06T03:57:22;98543.50;;;12.12;51.37
26859;BME280;14429;48.346;16.338;2024-01-06T03:59:47;98554.19;;;12.12;51.99
26859;BME280;14429;48.346;16.338;2024-01-06T04:02:13;98551.25;;;12.05;52.55
26859;BME280;14429;48.346;16.338;2024-01-06T04:04:39;98562.09;;;12.04;52.61
26859;BME280;14429;48.346;16.338;2024-01-06T04:07:05;98548.56;;;12.05;52.27
26859;BME280;14429;48.346;16.338;2024-01-06T04:09:30;98547.75;;;12.05;52.04
26859;BME280;14429;48.346;16.338;2024-01-06T04:11:55;98553.66;;;11.89;52.05
26859;BME280;14429;48.346;16.338;2024-01-06T04:14:21;98554.19;;;12.12;51.30
26859;BME280;14429;48.346;16.338;2024-01-06T04:16:46;98553.63;;;12.17;50.98
26859;BME280;14429;48.346;16.338;2024-01-06T04:19:12;98566.41;;;12.23;50.70
26859;BME280;14429;48.346;16.338;2024-01-06T04:21:38;98565.28;;;12.16;50.72
26859;BME280;14429;48.346;16.338;2024-01-06T04:24:04;98571.34;;;12.09;51.42
26859;BME280;14429;48.346;16.338;2024-01-06T04:26:30;98573.03;;;12.10;51.87
26859;BME280;14429;48.346;16.338;2024-01-06T04:28:55;98570.81;;;11.96;52.38
26859;BME280;14429;48.346;16.338;2024-01-06T04:31:21;98579.94;;;12.03;52.71
26859;BME280;14429;48.346;16.338;2024-01-06T04:33:46;98573.91;;;12.11;52.11
26859;BME280;14429;48.346;16.338;2024-01-06T04:36:11;98582.59;;;12.12;51.56
26859;BME280;14429;48.346;16.338;2024-01-06T04:38:38;98580.66;;;12.14;51.39
26859;BME280;14429;48.346;16.338;2024-01-06T04:41:04;98580.06;;;12.20;50.84
26859;BME280;14429;48.346;16.338;2024-01-06T04:43:29;98593.84;;;12.25;50.59
26859;BME280;14429;48.346;16.338;2024-01-06T04:45:54;98589.34;;;12.26;50.41
26859;BME280;14429;48.346;16.338;2024-01-06T04:48:20;98597.22;;;12.27;50.32
26859;BME280;14429;48.346;16.338;2024-01-06T04:50:45;98594.13;;;12.22;50.67
26859;BME280;14429;48.346;16.338;2024-01-06T04:53:10;98601.56;;;12.10;51.49
26859;BME280;14429;48.346;16.338;2024-01-06T04:55:37;98595.97;;;12.12;51.35
26859;BME280;14429;48.346;16.338;2024-01-06T04:58:03;98600.91;;;12.08;51.90
26859;BME280;14429;48.346;16.338;2024-01-06T05:00:28;98595.09;;;12.03;52.38
26859;BME280;14429;48.346;16.338;2024-01-06T05:02:54;98600.03;;;11.98;52.74
26859;BME280;14429;48.346;16.338;2024-01-06T05:05:19;98589.75;;;12.03;52.55
26859;BME280;14429;48.346;16.338;2024-01-06T05:07:45;98598.22;;;12.08;52.08
26859;BME280;14429;48.346;16.338;2024-01-06T05:10:10;98600.63;;;12.11;51.76
26859;BME280;14429;48.346;16.338;2024-01-06T05:12:37;98599.34;;;12.14;51.46
26859;BME280;14429;48.346;16.338;2024-01-06T05:15:03;98595.28;;;12.11;51.19
26859;BME280;14429;48.346;16.338;2024-01-06T05:17:28;98593.16;;;12.14;50.85
26859;BME280;14429;48.346;16.338;2024-01-06T05:19:55;98595.81;;;12.23;50.53
26859;BME280;14429;48.346;16.338;2024-01-06T05:22:20;98596.09;;;12.20;50.55
26859;BME280;14429;48.346;16.338;2024-01-06T05:24:46;98589.94;;;12.11;51.38
26859;BME280;14429;48.346;16.338;2024-01-06T05:27:11;98585.13;;;12.05;52.08
26859;BME280;14429;48.346;16.338;2024-01-06T05:29:38;98585.13;;;12.05;52.29
26859;BME280;14429;48.346;16.338;2024-01-06T05:32:04;98584.88;;;12.08;52.47
26859;BME280;14429;48.346;16.338;2024-01-06T05:34:29;98585.44;;;12.11;51.83
26859;BME280;14429;48.346;16.338;2024-01-06T05:36:54;98585.84;;;12.16;51.52
26859;BME280;14429;48.346;16.338;2024-01-06T05:39:20;98584.00;;;12.16;51.17
26859;BME280;14429;48.346;16.338;2024-01-06T05:41:45;98583.56;;;12.21;50.85
26859;BME280;14429;48.346;16.338;2024-01-06T05:44:11;98583.16;;;12.25;50.49
26859;BME280;14429;48.346;16.338;2024-01-06T05:46:37;98582.84;;;12.28;50.22
26859;BME280;14429;48.346;16.338;2024-01-06T05:49:03;98593.84;;;12.25;50.33
26859;BME280;14429;48.346;16.338;2024-01-06T05:51:28;98601.72;;;12.17;50.58
26859;BME280;14429;48.346;16.338;2024-01-06T05:53:54;98607.94;;;12.18;51.17
26859;BME280;14429;48.346;16.338;2024-01-06T05:56:22;98595.28;;;12.11;51.41
26859;BME280;14429;48.346;16.338;2024-01-06T05:58:48;98593.28;;;12.12;51.89
26859;BME280;14429;48.346;16.338;2024-01-06T06:01:13;98589.94;;;12.11;52.19
26859;BME280;14429;48.346;16.338;2024-01-06T06:03:40;98590.88;;;12.10;52.13
26859;BME280;14429;48.346;16.338;2024-01-06T06:06:05;98598.91;;;12.10;52.07
26859;BME280;14429;48.346;16.338;2024-01-06T06:08:31;98596.94;;;12.12;51.90
26859;BME280;14429;48.346;16.338;2024-01-06T06:10:56;98595.84;;;12.14;51.43
26859;BME280;14429;48.346;16.338;2024-01-06T06:13:22;98601.72;;;12.17;51.00
26859;BME280;14429;48.346;16.338;2024-01-06T06:15:47;98599.75;;;12.19;50.75
26859;BME280;14429;48.346;16.338;2024-01-06T06:18:12;98615.50;;;12.22;50.46
26859;BME280;14429;48.346;16.338;2024-01-06T06:20:39;98619.59;;;12.26;50.22
26859;BME280;14429;48.346;16.338;2024-01-06T06:23:05;98622.81;;;12.20;50.39
26859;BME280;14429;48.346;16.338;2024-01-06T06:25:30;98627.03;;;12.13;51.45
26859;BME280;14429;48.346;16.338;2024-01-06T06:27:55;98632.38;;;12.13;51.78
26859;BME280;14429;48.346;16.338;2024-01-06T06:30:21;98630.72;;;12.03;52.30
26859;BME280;14429;48.346;16.338;2024-01-06T06:32:46;98639.41;;;11.96;52.49
26859;BME280;14429;48.346;16.338;2024-01-06T06:35:12;98636.19;;;11.92;52.13
26859;BME280;14429;48.346;16.338;2024-01-06T06:37:38;98627.16;;;12.03;51.66
26859;BME280;14429;48.346;16.338;2024-01-06T06:40:05;98636.31;;;11.91;51.33
26859;BME280;14429;48.346;16.338;2024-01-06T06:42:30;98633.50;;;12.11;51.08
26859;BME280;14429;48.346;16.338;2024-01-06T06:44:56;98636.31;;;12.00;50.99
26859;BME280;14429;48.346;16.338;2024-01-06T06:47:21;98633.50;;;12.02;50.75
26859;BME280;14429;48.346;16.338;2024-01-06T06:49:47;98627.03;;;11.95;51.17
26859;BME280;14429;48.346;16.338;2024-01-06T06:52:12;98636.75;;;11.96;51.68
26859;BME280;14429;48.346;16.338;2024-01-06T06:54:39;98636.03;;;11.94;52.18
26859;BME280;14429;48.346;16.338;2024-01-06T06:57:04;98634.63;;;11.90;52.56
26859;BME280;14429;48.346;16.338;2024-01-06T06:59:30;98638.00;;;11.92;52.40
26859;BME280;14429;48.346;16.338;2024-01-06T07:01:55;98639.13;;;11.99;52.05
26859;BME280;14429;48.346;16.338;2024-01-06T07:04:20;98641.41;;;12.03;51.62
26859;BME280;14429;48.346;16.338;2024-01-06T07:06:46;98643.63;;;12.08;51.29
26859;BME280;14429;48.346;16.338;2024-01-06T07:09:11;98643.19;;;12.03;51.06
26859;BME280;14429;48.346;16.338;2024-01-06T07:11:38;98648.38;;;11.95;51.06
26859;BME280;14429;48.346;16.338;2024-01-06T07:14:03;98656.53;;;12.03;50.73
26859;BME280;14429;48.346;16.338;2024-01-06T07:16:29;98651.94;;;11.95;51.00
26859;BME280;14429;48.346;16.338;2024-01-06T07:18:54;98663.00;;;11.91;51.77
26859;BME280;14429;48.346;16.338;2024-01-06T07:21:19;98657.97;;;11.88;52.24
26859;BME280;14429;48.346;16.338;2024-01-06T07:23:45;98661.59;;;11.87;52.62
26859;BME280;14429;48.346;16.338;2024-01-06T07:26:10;98677.91;;;11.84;52.72
26859;BME280;14429;48.346;16.338;2024-01-06T07:28:37;98666.81;;;11.88;52.22
26859;BME280;14429;48.346;16.338;2024-01-06T07:31:03;98673.66;;;11.72;52.49
26859;BME280;14429;48.346;16.338;2024-01-06T07:33:28;98671.72;;;11.74;52.14
26859;BME280;14429;48.346;16.338;2024-01-06T07:35:53;98673.00;;;11.89;51.56
26859;BME280;14429;48.346;16.338;2024-01-06T07:38:19;98675.97;;;11.95;51.20
26859;BME280;14429;48.346;16.338;2024-01-06T07:40:44;98671.63;;;12.04;50.91
26859;BME280;14429;48.346;16.338;2024-01-06T07:43:10;98681.59;;;12.02;50.74
26859;BME280;14429;48.346;16.338;2024-01-06T07:45:36;98673.53;;;11.83;51.55
26859;BME280;14429;48.346;16.338;2024-01-06T07:48:02;98680.75;;;11.14;53.34
26859;BME280;14429;48.346;16.338;2024-01-06T07:50:28;98681.56;;;11.74;52.97
26859;BME280;14429;48.346;16.338;2024-01-06T07:52:54;98686.91;;;11.83;52.77
26859;BME280;14429;48.346;16.338;2024-01-06T07:55:19;98681.03;;;11.89;52.17
26859;BME280;14429;48.346;16.338;2024-01-06T07:57:44;98686.94;;;11.92;51.91
26859;BME280;14429;48.346;16.338;2024-01-06T08:00:11;98687.34;;;11.97;51.32
26859;BME280;14429;48.346;16.338;2024-01-06T08:02:38;98692.25;;;12.02;51.07
26859;BME280;14429;48.346;16.338;2024-01-06T08:05:03;98681.03;;;12.08;50.40
26859;BME280;14429;48.346;16.338;2024-01-06T08:07:29;98689.19;;;11.97;50.83
26859;BME280;14429;48.346;16.338;2024-01-06T08:09:54;98697.03;;;11.98;50.86
26859;BME280;14429;48.346;16.338;2024-01-06T08:12:20;98694.22;;;11.90;51.60
26859;BME280;14429;48.346;16.338;2024-01-06T08:14:45;98702.38;;;11.89;51.97
26859;BME280;14429;48.346;16.338;2024-01-06T08:17:10;98700.41;;;11.91;52.41
26859;BME280;14429;48.346;16.338;2024-01-06T08:19:37;98704.59;;;11.84;52.67
26859;BME280;14429;48.346;16.338;2024-01-06T08:22:03;98708.00;;;11.86;52.31
26859;BME280;14429;48.346;16.338;2024-01-06T08:24:28;98704.59;;;11.84;51.99
26859;BME280;14429;48.346;16.338;2024-01-06T08:26:54;98709.63;;;11.59;52.04
26859;BME280;14429;48.346;16.338;2024-01-06T08:29:19;98717.78;;;11.76;51.81
26859;BME280;14429;48.346;16.338;2024-01-06T08:31:44;98706.88;;;11.98;50.98
26859;BME280;14429;48.346;16.338;2024-01-06T08:34:10;98711.69;;;12.04;50.51
26859;BME280;14429;48.346;16.338;2024-01-06T08:36:37;98713.91;;;11.99;50.68
26859;BME280;14429;48.346;16.338;2024-01-06T08:39:02;98717.84;;;11.95;51.42
26859;BME280;14429;48.346;16.338;2024-01-06T08:41:28;98718.13;;;11.92;51.82
26859;BME280;14429;48.346;16.338;2024-01-06T08:43:53;98716.44;;;11.91;52.03
26859;BME280;14429;48.346;16.338;2024-01-06T08:46:19;98722.06;;;11.88;52.58
26859;BME280;14429;48.346;16.338;2024-01-06T08:48:44;98722.06;;;11.88;52.18
26859;BME280;14429;48.346;16.338;2024-01-06T08:51:10;98726.16;;;11.92;51.76
26859;BME280;14429;48.346;16.338;2024-01-06T08:53:36;98722.50;;;11.93;51.59
26859;BME280;14429;48.346;16.338;2024-01-06T08:56:02;98724.59;;;11.89;51.46
26859;BME280;14429;48.346;16.338;2024-01-06T08:58:27;98726.16;;;11.92;51.19
26859;BME280;14429;48.346;16.338;2024-01-06T09:00:53;98727.16;;;12.00;50.71
26859;BME280;14429;48.346;16.338;2024-01-06T09:03:18;98735.53;;;11.86;51.09
26859;BME280;14429;48.346;16.338;2024-01-06T09:05:44;98726.25;;;11.81;51.72
26859;BME280;14429;48.346;16.338;2024-01-06T09:08:09;98717.22;;;11.73;52.52
26859;BME280;14429;48.346;16.338;2024-01-06T09:10:36;98722.72;;;11.71;52.84
26859;BME280;14429;48.346;16.338;2024-01-06T09:13:01;98732.50;;;11.61;53.40
26859;BME280;14429;48.346;16.338;2024-01-06T09:15:26;98732.97;;;11.76;52.69
26859;BME280;14429;48.346;16.338;2024-01-06T09:17:52;98736.31;;;11.68;52.49
26859;BME280;14429;48.346;16.338;2024-01-06T09:20:17;98745.66;;;11.83;51.80
26859;BME280;14429;48.346;16.338;2024-01-06T09:22:43;98734.38;;;11.70;52.16
26859;BME280;14429;48.346;16.338;2024-01-06T09:25:08;98739.16;;;11.76;51.68
26859;BME280;14429;48.346;16.338;2024-01-06T09:27:35;98741.16;;;11.84;51.25
26859;BME280;14429;48.346;16.338;2024-01-06T09:30:00;98738.63;;;11.82;51.23
26859;BME280;14429;48.346;16.338;2024-01-06T09:32:26;98743.19;;;11.32;53.51
26859;BME280;14429;48.346;16.338;2024-01-06T09:34:51;98736.06;;;11.71;52.38
26859;BME280;14429;48.346;16.338;2024-01-06T09:37:16;98736.91;;;11.72;52.71
26859;BME280;14429;48.346;16.338;2024-01-06T09:39:42;98744.44;;;11.57;53.31
26859;BME280;14429;48.346;16.338;2024-01-06T09:42:07;98730.97;;;11.68;53.14
26859;BME280;14429;48.346;16.338;2024-01-06T09:44:34;98737.78;;;11.82;52.14
26859;BME280;14429;48.346;16.338;2024-01-06T09:47:01;98737.22;;;11.87;51.64
26859;BME280;14429;48.346;16.338;2024-01-06T09:49:28;98740.47;;;11.91;51.48
26859;BME280;14429;48.346;16.338;2024-01-06T09:51:57;98742.44;;;11.98;50.95
26859;BME280;14429;48.346;16.338;2024-01-06T09:54:23;98741.19;;;12.02;50.76
26859;BME280;14429;48.346;16.338;2024-01-06T09:56:50;98740.09;;;12.05;50.56
26859;BME280;14429;48.346;16.338;2024-01-06T09:59:17;98745.28;;;11.97;50.83
26859;BME280;14429;48.346;16.338;2024-01-06T10:01:44;98747.63;;;11.81;52.07
26859;BME280;14429;48.346;16.338;2024-01-06T10:04:10;98747.16;;;11.76;52.75
26859;BME280;14429;48.346;16.338;2024-01-06T10:06:35;98736.06;;;11.71;53.18
26859;BME280;14429;48.346;16.338;2024-01-06T10:09:01;98742.56;;;11.78;52.55
26859;BME280;14429;48.346;16.338;2024-01-06T10:11:26;98741.16;;;11.84;52.15
26859;BME280;14429;48.346;16.338;2024-01-06T10:13:52;98741.47;;;11.90;51.60
26859;BME280;14429;48.346;16.338;2024-01-06T10:16:18;98743.72;;;11.85;51.71
26859;BME280;14429;48.346;16.338;2024-01-06T10:18:45;98740.03;;;11.86;51.46
26859;BME280;14429;48.346;16.338;2024-01-06T10:21:11;98746.53;;;11.93;50.97
26859;BME280;14429;48.346;16.338;2024-01-06T10:23:36;98733.88;;;11.95;50.77
26859;BME280;14429;48.346;16.338;2024-01-06T10:26:02;98745.91;;;11.71;51.98
26859;BME280;14429;48.346;16.338;2024-01-06T10:28:28;98743.75;;;11.35;53.60
26859;BME280;14429;48.346;16.338;2024-01-06T10:30:55;98748.91;;;11.48;53.72
26859;BME280;14429;48.346;16.338;2024-01-06T10:33:21;98740.63;;;11.51;53.93
26859;BME280;14429;48.346;16.338;2024-01-06T10:35:48;98744.25;;;11.50;53.83
26859;BME280;14429;48.346;16.338;2024-01-06T10:38:14;98738.13;;;11.58;53.03
26859;BME280;14429;48.346;16.338;2024-01-06T10:40:39;98744.97;;;11.22;55.43
26859;BME280;14429;48.346;16.338;2024-01-06T10:43:05;98734.06;;;11.64;52.34
26859;BME280;14429;48.346;16.338;2024-01-06T10:45:31;98738.38;;;11.85;51.50
26859;BME280;14429;48.346;16.338;2024-01-06T10:47:57;98738.94;;;11.88;51.08
26859;BME280;14429;48.346;16.338;2024-01-06T10:50:23;98728.78;;;11.83;51.23
26859;BME280;14429;48.346;16.338;2024-01-06T10:52:50;98731.03;;;11.78;51.69
26859;BME280;14429;48.346;16.338;2024-01-06T10:55:18;98721.72;;;11.72;52.34
26859;BME280;14429;48.346;16.338;2024-01-06T10:57:44;98729.84;;;11.61;53.17
26859;BME280;14429;48.346;16.338;2024-01-06T11:00:11;98729.31;;;11.67;53.07
26859;BME280;14429;48.346;16.338;2024-01-06T11:02:37;98735.47;;;11.58;53.43
26859;BME280;14429;48.346;16.338;2024-01-06T11:05:03;98724.97;;;11.76;52.43
26859;BME280;14429;48.346;16.338;2024-01-06T11:07:29;98729.31;;;11.67;52.63
26859;BME280;14429;48.346;16.338;2024-01-06T11:09:59;98728.47;;;11.76;52.04
26859;BME280;14429;48.346;16.338;2024-01-06T11:12:27;98718.41;;;11.89;51.41
26859;BME280;14429;48.346;16.338;2024-01-06T11:14:53;98718.72;;;11.95;50.93
26859;BME280;14429;48.346;16.338;2024-01-06T11:17:51;98716.00;;;11.86;51.35
26859;BME280;14429;48.346;16.338;2024-01-06T11:20:17;98710.47;;;11.59;52.69
26859;BME280;14429;48.346;16.338;2024-01-06T11:22:42;98705.53;;;11.64;52.57
26859;BME280;14429;48.346;16.338;2024-01-06T11:25:14;98703.19;;;11.71;52.97
26859;BME280;14429;48.346;16.338;2024-01-06T11:27:41;98705.69;;;11.72;52.88
26859;BME280;14429;48.346;16.338;2024-01-06T11:30:07;98709.41;;;11.81;52.54
26859;BME280;14429;48.346;16.338;2024-01-06T11:32:34;98704.34;;;11.87;51.93
26859;BME280;14429;48.346;16.338;2024-01-06T11:35:05;98697.16;;;11.39;55.04
26859;BME280;14429;48.346;16.338;2024-01-06T11:37:35;98698.72;;;11.90;51.40
26859;BME280;14429;48.346;16.338;2024-01-06T11:40:01;98702.22;;;11.81;51.59
26859;BME280;14429;48.346;16.338;2024-01-06T11:42:33;98699.56;;;11.81;52.96
26859;BME280;14429;48.346;16.338;2024-01-06T11:45:01;98691.97;;;11.86;51.98
26859;BME280;14429;48.346;16.338;2024-01-06T11:47:27;98698.16;;;11.77;53.94
26859;BME280;14429;48.346;16.338;2024-01-06T11:49:54;98690.94;;;11.68;54.59
26859;BME280;14429;48.346;16.338;2024-01-06T11:52:20;98697.34;;;11.47;55.52
26859;BME280;14429;48.346;16.338;2024-01-06T11:54:46;98690.94;;;11.68;54.52
26859;BME280;14429;48.346;16.338;2024-01-06T11:57:11;98694.75;;;11.66;54.29
26859;BME280;14429;48.346;16.338;2024-01-06T11:59:38;98685.22;;;11.82;53.34
26859;BME280;14429;48.346;16.338;2024-01-06T12:02:04;98687.31;;;11.79;53.36
26859;BME280;14429;48.346;16.338;2024-01-06T12:04:30;98680.88;;;11.81;52.92
26859;BME280;14429;48.346;16.338;2024-01-06T12:07:05;98683.69;;;11.98;52.25
26859;BME280;14429;48.346;16.338;2024-01-06T12:09:30;98683.84;;;11.97;52.01
26859;BME280;14429;48.346;16.338;2024-01-06T12:12:01;98683.81;;;11.87;52.51
26859;BME280;14429;48.346;16.338;2024-01-06T12:14:26;98688.56;;;11.75;53.43
26859;BME280;14429;48.346;16.338;2024-01-06T12:16:53;98692.41;;;11.43;55.22
26859;BME280;14429;48.346;16.338;2024-01-06T12:19:18;98687.09;;;11.52;55.04
26859;BME280;14429;48.346;16.338;2024-01-06T12:21:44;98693.91;;;11.75;53.62
26859;BME280;14429;48.346;16.338;2024-01-06T12:24:15;98683.53;;;11.81;52.80
26859;BME280;14429;48.346;16.338;2024-01-06T12:26:41;98682.13;;;11.86;52.67
26859;BME280;14429;48.346;16.338;2024-01-06T12:29:06;98694.94;;;11.92;52.25
26859;BME280;14429;48.346;16.338;2024-01-06T12:31:31;98691.44;;;11.92;52.06
26859;BME280;14429;48.346;16.338;2024-01-06T12:33:59;98689.31;;;12.05;51.42
26859;BME280;14429;48.346;16.338;2024-01-06T12:36:24;98683.00;;;11.96;51.66
26859;BME280;14429;48.346;16.338;2024-01-06T12:38:50;98691.44;;;11.92;52.02
26859;BME280;14429;48.346;16.338;2024-01-06T12:41:16;98695.31;;;11.79;53.14
26859;BME280;14429;48.346;16.338;2024-01-06T12:43:41;98688.31;;;11.78;53.42